createdAt,value
2017-12-10T00:00:56.247Z,13.5
2017-12-10T00:10:56.335Z,16.6
2017-12-10T00:20:56.146Z,14.3
2017-12-10T00:30:55.918Z,11.6
2017-12-10T00:40:56.459Z,12.1
2017-12-10T00:50:56.306Z,11.7
2017-12-10T01:00:56.317Z,11.1
2017-12-10T01:10:55.966Z,12.2
2017-12-10T01:20:56.021Z,12.8
2017-12-10T01:30:56.046Z,13.6
2017-12-10T01:40:55.739Z,14.1
2017-12-10T01:50:55.618Z,13.6
2017-12-10T02:00:56.698Z,12.9
2017-12-10T02:10:55.419Z,13.3
2017-12-10T02:20:56.235Z,13.0
2017-12-10T02:30:55.934Z,12.3
2017-12-10T02:40:55.627Z,11.6
2017-12-10T02:50:56.315Z,12.1
2017-12-10T03:00:56.852Z,11.3
2017-12-10T03:10:55.722Z,11.9
2017-12-10T03:20:55.951Z,10.9
2017-12-10T03:30:56.167Z,11.2
2017-12-10T03:40:55.871Z,12.7
2017-12-10T03:50:56.293Z,12.4
2017-12-10T04:00:55.988Z,11.9
2017-12-10T04:10:55.663Z,10.9
2017-12-10T04:20:55.655Z,11.0
2017-12-10T04:30:56.596Z,11.4
2017-12-10T04:40:56.287Z,12.2
2017-12-10T04:50:56.423Z,10.8
2017-12-10T05:00:56.565Z,10.6
2017-12-10T05:10:56.248Z,10.5
2017-12-10T05:20:56.529Z,11.0
2017-12-10T05:30:56.070Z,9.7
2017-12-10T05:40:55.999Z,11.0
2017-12-10T05:50:56.202Z,11.7
2017-12-10T06:00:56.385Z,11.1
2017-12-10T06:10:56.272Z,10.4
2017-12-10T06:20:56.063Z,12.6
2017-12-10T06:30:55.712Z,11.9
2017-12-10T06:40:55.707Z,9.1
2017-12-10T06:50:56.584Z,11.9
2017-12-10T07:00:56.260Z,10.1
2017-12-10T07:10:56.182Z,11.3
2017-12-10T07:20:55.965Z,10.3
2017-12-10T07:30:55.677Z,9.2
2017-12-10T07:40:55.616Z,9.6
2017-12-10T07:50:56.339Z,9.2
2017-12-10T08:00:56.459Z,9.3
2017-12-10T08:10:56.233Z,8.5
2017-12-10T08:20:56.004Z,8.6
2017-12-10T08:30:55.730Z,8.8
2017-12-10T08:40:55.627Z,10.0
2017-12-10T08:50:56.305Z,8.0
2017-12-10T09:00:56.022Z,8.8
2017-12-10T09:10:56.174Z,11.0
2017-12-10T09:20:56.312Z,10.1
2017-12-10T09:30:56.583Z,10.8
2017-12-10T09:40:56.509Z,9.5
2017-12-10T09:50:56.682Z,10.3
2017-12-10T10:00:57.365Z,11.8
2017-12-10T10:10:56.362Z,10.7
2017-12-10T10:20:56.308Z,8.7
2017-12-10T10:30:56.001Z,9.6
2017-12-10T10:40:55.718Z,10.7
2017-12-10T10:50:55.392Z,11.0
2017-12-10T11:00:56.247Z,9.5
2017-12-10T11:10:56.474Z,9.6
2017-12-10T11:20:56.459Z,10.7
2017-12-10T11:30:56.121Z,9.2
2017-12-10T11:40:55.822Z,8.3
2017-12-10T11:50:55.819Z,5.2
2017-12-10T12:00:55.688Z,5.2
2017-12-10T12:10:56.384Z,5.3
2017-12-10T12:20:56.859Z,7.0
2017-12-10T12:30:55.681Z,5.1
2017-12-10T12:40:56.628Z,4.4
2017-12-10T12:50:56.685Z,3.8
2017-12-10T13:00:56.770Z,3.7
2017-12-10T13:10:55.681Z,3.9
2017-12-10T13:20:55.808Z,3.5
2017-12-10T13:30:56.050Z,4.4
2017-12-10T13:40:56.178Z,3.9
2017-12-10T13:50:55.858Z,4.1
2017-12-10T14:00:55.841Z,3.7
2017-12-10T14:10:56.197Z,4.8
2017-12-10T14:20:56.321Z,7.3
2017-12-10T14:30:56.152Z,8.0
2017-12-10T14:40:55.766Z,8.7
2017-12-10T14:50:55.424Z,10.6
2017-12-10T15:00:56.082Z,12.3
2017-12-10T15:10:55.780Z,14.8
2017-12-10T15:20:55.689Z,13.9
2017-12-10T15:30:55.381Z,12.5
2017-12-10T15:40:56.112Z,14.1
2017-12-10T15:50:55.812Z,13.7
2017-12-10T16:00:55.646Z,13.1
2017-12-10T16:10:56.706Z,14.2
2017-12-10T16:20:55.524Z,13.8
2017-12-10T16:30:56.437Z,15.5
2017-12-10T16:40:57.473Z,18.0
2017-12-10T16:50:56.457Z,19.5
2017-12-10T17:00:57.158Z,21.4
2017-12-10T17:10:56.120Z,18.6
2017-12-10T17:20:57.119Z,17.0
2017-12-10T17:30:56.448Z,16.3
2017-12-10T17:40:56.168Z,15.5
2017-12-10T17:50:55.816Z,13.9
2017-12-10T18:00:55.799Z,13.2
2017-12-10T18:10:55.679Z,10.9
2017-12-10T18:20:55.797Z,8.6
2017-12-10T18:30:55.698Z,6.2
2017-12-10T18:40:55.826Z,5.4
2017-12-10T18:50:55.987Z,5.4
2017-12-10T19:00:55.697Z,9.7
2017-12-10T19:10:56.428Z,5.3
2017-12-10T19:20:56.288Z,5.4
2017-12-10T19:30:56.225Z,5.0
2017-12-10T19:40:56.390Z,5.2
2017-12-10T19:50:56.504Z,5.4
2017-12-10T20:00:56.334Z,4.0
2017-12-10T20:10:56.457Z,4.2
2017-12-10T20:20:56.520Z,4.1
2017-12-10T20:30:56.604Z,4.2
2017-12-10T20:40:56.265Z,4.2
2017-12-10T20:50:55.976Z,4.0
2017-12-10T21:00:55.658Z,4.6
2017-12-10T21:10:56.575Z,4.8
2017-12-10T21:20:56.930Z,4.7
2017-12-10T21:30:55.654Z,5.7
2017-12-10T21:40:56.750Z,5.2
2017-12-10T21:50:55.588Z,5.1
2017-12-10T22:00:56.297Z,6.1
2017-12-10T22:10:55.940Z,6.5
2017-12-10T22:20:56.207Z,6.4
2017-12-10T22:30:55.973Z,5.4
2017-12-10T22:40:55.704Z,6.1
2017-12-10T22:50:56.741Z,8.2
2017-12-10T23:00:55.431Z,8.9
2017-12-10T23:10:56.151Z,7.0
2017-12-10T23:20:56.014Z,5.4
2017-12-10T23:30:55.982Z,4.4
2017-12-10T23:40:56.043Z,4.9
2017-12-10T23:50:56.048Z,4.5
